createdAt,value
2018-06-01T00:00:30.188Z,0
2018-06-01T00:01:39.931Z,0
2018-06-01T00:02:49.948Z,0
2018-06-01T00:03:59.699Z,0
2018-06-01T00:05:09.448Z,0
2018-06-01T00:06:19.472Z,0
2018-06-01T00:07:29.493Z,0
2018-06-01T00:08:39.513Z,0
2018-06-01T00:09:49.538Z,0
2018-06-01T00:10:59.562Z,0
2018-06-01T00:12:09.318Z,0
2018-06-01T00:13:19.338Z,0
2018-06-01T00:14:28.818Z,0
2018-06-01T00:15:38.841Z,0
2018-06-01T00:16:48.322Z,0
2018-06-01T00:17:58.336Z,0
2018-06-01T00:19:07.821Z,0
2018-06-01T00:20:17.297Z,0
2018-06-01T00:21:26.776Z,0
2018-06-01T00:22:36.538Z,0
2018-06-01T00:23:46.566Z,0
2018-06-01T00:24:56.577Z,0
2018-06-01T00:26:06.593Z,0
2018-06-01T00:27:16.601Z,0
2018-06-01T00:28:26.347Z,0
2018-06-01T00:29:36.362Z,0
2018-06-01T00:30:46.375Z,0
2018-06-01T00:31:55.858Z,0
2018-06-01T00:33:05.346Z,0
2018-06-01T00:34:15.367Z,0
2018-06-01T00:35:25.159Z,0
2018-06-01T00:36:34.911Z,0
2018-06-01T00:37:44.937Z,4
2018-06-01T00:38:54.970Z,4
2018-06-01T00:40:04.985Z,4
2018-06-01T00:41:14.471Z,4
2018-06-01T00:42:24.222Z,4
2018-06-01T00:43:33.704Z,4
2018-06-01T00:44:43.504Z,4
2018-06-01T00:45:53.255Z,0
2018-06-01T00:47:03.277Z,0
2018-06-01T00:48:12.760Z,0
2018-06-01T00:49:22.512Z,4
2018-06-01T00:50:31.999Z,4
2018-06-01T00:51:41.751Z,4
2018-06-01T00:52:51.774Z,4
2018-06-01T00:54:01.796Z,4
2018-06-01T00:55:11.283Z,4
2018-06-01T00:56:21.308Z,4
2018-06-01T00:57:31.053Z,4
2018-06-01T00:58:40.802Z,4
2018-06-01T00:59:50.556Z,8
2018-06-01T01:01:00.034Z,8
2018-06-01T01:02:09.786Z,4
2018-06-01T01:03:19.532Z,8
2018-06-01T01:04:29.015Z,8
2018-06-01T01:05:39.029Z,8
2018-06-01T01:06:48.510Z,8
2018-06-01T01:07:58.530Z,12
2018-06-01T01:09:08.280Z,8
2018-06-01T01:10:18.301Z,12
2018-06-01T01:11:28.049Z,8
2018-06-01T01:12:38.076Z,12
2018-06-01T01:13:47.832Z,16
2018-06-01T01:14:57.605Z,12
2018-06-01T01:16:06.966Z,12
2018-06-01T01:17:16.977Z,16
2018-06-01T01:18:26.988Z,16
2018-06-01T01:19:36.756Z,20
2018-06-01T01:20:46.507Z,20
2018-06-01T01:21:56.363Z,20
2018-06-01T01:23:06.377Z,20
2018-06-01T01:24:16.391Z,24
2018-06-01T01:25:26.407Z,24
2018-06-01T01:26:36.155Z,28
2018-06-01T01:27:45.633Z,32
2018-06-01T01:28:55.650Z,36
2018-06-01T01:30:05.497Z,36
2018-06-01T01:31:15.242Z,40
2018-06-01T01:32:25.260Z,44
2018-06-01T01:33:35.311Z,44
2018-06-01T01:34:45.334Z,52
2018-06-01T01:35:55.359Z,52
2018-06-01T01:37:05.373Z,56
2018-06-01T01:38:14.871Z,60
2018-06-01T01:39:24.618Z,64
2018-06-01T01:40:34.371Z,68
2018-06-01T01:41:44.391Z,76
2018-06-01T01:42:54.140Z,80
2018-06-01T01:44:03.885Z,84
2018-06-01T01:45:13.944Z,88
2018-06-01T01:46:23.695Z,96
2018-06-01T01:47:33.709Z,100
2018-06-01T01:48:43.739Z,108
2018-06-01T01:49:53.758Z,116
2018-06-01T01:51:03.513Z,124
2018-06-01T01:52:12.998Z,132
2018-06-01T01:53:23.015Z,140
2018-06-01T01:54:32.762Z,148
2018-06-01T01:55:42.773Z,156
2018-06-01T01:56:52.788Z,168
2018-06-01T01:58:02.540Z,176
2018-06-01T01:59:12.023Z,184
2018-06-01T02:00:21.503Z,196
2018-06-01T02:01:31.522Z,208
2018-06-01T02:02:41.592Z,220
2018-06-01T02:03:51.600Z,228
2018-06-01T02:05:01.082Z,240
2018-06-01T02:06:10.838Z,252
2018-06-01T02:07:20.904Z,264
2018-06-01T02:08:30.918Z,280
2018-06-01T02:09:40.945Z,296
2018-06-01T02:10:50.422Z,308
2018-06-01T02:12:00.176Z,320
2018-06-01T02:13:09.932Z,332
2018-06-01T02:14:19.725Z,348
2018-06-01T02:15:29.741Z,364
2018-06-01T02:16:39.759Z,380
2018-06-01T02:17:49.508Z,396
2018-06-01T02:18:59.521Z,412
2018-06-01T02:20:09.278Z,428
2018-06-01T02:21:19.291Z,448
2018-06-01T02:22:29.303Z,468
2018-06-01T02:23:39.319Z,488
2018-06-01T02:24:49.063Z,504
2018-06-01T02:25:58.806Z,528
2018-06-01T02:27:08.292Z,544
2018-06-01T02:28:18.043Z,564
2018-06-01T02:29:27.787Z,584
2018-06-01T02:30:36.748Z,608
2018-06-01T02:31:46.778Z,628
2018-06-01T02:32:56.557Z,648
2018-06-01T02:34:06.308Z,672
2018-06-01T02:35:16.057Z,692
2018-06-01T02:36:25.800Z,720
2018-06-01T02:37:35.554Z,744
2018-06-01T02:38:45.319Z,768
2018-06-01T02:39:55.084Z,796
2018-06-01T02:41:05.103Z,816
2018-06-01T02:42:14.859Z,844
2018-06-01T02:43:24.889Z,868
2018-06-01T02:44:34.647Z,892
2018-06-01T02:45:44.686Z,920
2018-06-01T02:46:54.703Z,948
2018-06-01T02:48:03.918Z,968
2018-06-01T02:49:13.415Z,996
2018-06-01T02:50:23.164Z,1020
2018-06-01T02:51:32.942Z,1048
2018-06-01T02:52:42.972Z,1072
2018-06-01T02:53:52.722Z,1100
2018-06-01T02:55:02.205Z,1124
2018-06-01T02:56:12.227Z,1148
2018-06-01T02:57:22.250Z,1172
2018-06-01T02:58:32.003Z,1192
2018-06-01T02:59:41.755Z,1220
2018-06-01T03:03:32.192Z,1296
2018-06-01T03:04:41.954Z,1324
2018-06-01T03:05:51.438Z,1348
2018-06-01T03:07:01.460Z,1372
2018-06-01T03:08:11.226Z,1400
2018-06-01T03:09:21.260Z,1424
2018-06-01T03:10:31.015Z,1448
2018-06-01T03:11:40.773Z,1472
2018-06-01T03:12:50.526Z,1496
2018-06-01T03:14:00.275Z,1520
2018-06-01T03:15:10.026Z,1540
2018-06-01T03:16:20.052Z,1568
2018-06-01T03:17:30.077Z,1588
2018-06-01T03:18:40.096Z,1612
2018-06-01T03:19:49.581Z,1632
2018-06-01T03:20:59.599Z,1660
2018-06-01T03:22:09.354Z,1680
2018-06-01T03:23:19.369Z,1704
2018-06-01T03:24:28.853Z,1724
2018-06-01T03:25:38.868Z,1744
2018-06-01T03:26:48.884Z,1768
2018-06-01T03:27:58.635Z,1788
2018-06-01T03:29:08.654Z,1808
2018-06-01T03:30:18.683Z,1824
2018-06-01T03:31:28.714Z,1844
2018-06-01T03:32:38.205Z,1860
2018-06-01T03:33:48.219Z,1884
2018-06-01T03:34:57.964Z,1904
2018-06-01T03:36:06.911Z,1920
2018-06-01T03:37:16.925Z,1944
2018-06-01T03:38:26.942Z,1964
2018-06-01T03:39:36.688Z,1988
2018-06-01T03:40:46.433Z,2012
2018-06-01T03:41:56.455Z,2032
2018-06-01T03:43:05.940Z,2052
2018-06-01T03:44:15.953Z,2068
2018-06-01T03:45:25.438Z,2080
2018-06-01T03:46:35.458Z,2096
2018-06-01T03:47:45.487Z,2108
2018-06-01T03:48:55.528Z,2116
2018-06-01T03:50:05.279Z,2124
2018-06-01T03:51:15.026Z,2132
2018-06-01T03:52:24.505Z,2144
2018-06-01T03:53:34.253Z,2148
2018-06-01T03:54:44.274Z,2152
2018-06-01T03:55:54.293Z,2156
2018-06-01T03:57:04.053Z,2164
2018-06-01T03:58:14.067Z,2188
2018-06-01T03:59:23.827Z,2176
2018-06-01T04:00:33.314Z,2212
2018-06-01T04:01:43.380Z,2236
2018-06-01T04:02:52.923Z,2260
2018-06-01T04:04:03.025Z,2268
2018-06-01T04:05:13.042Z,2292
2018-06-01T04:06:23.063Z,2324
2018-06-01T04:07:33.088Z,2340
2018-06-01T04:08:43.108Z,2352
2018-06-01T04:09:52.869Z,2360
2018-06-01T04:11:02.620Z,2376
2018-06-01T04:12:11.834Z,2388
2018-06-01T04:13:21.589Z,2388
2018-06-01T04:14:31.357Z,2396
2018-06-01T04:15:41.376Z,2412
2018-06-01T04:16:51.395Z,2432
2018-06-01T04:18:01.413Z,2464
2018-06-01T04:19:11.160Z,2476
2018-06-01T04:20:21.189Z,2492
2018-06-01T04:21:31.211Z,2504
2018-06-01T04:22:41.227Z,2512
2018-06-01T04:23:50.970Z,2528
2018-06-01T04:25:01.100Z,2536
2018-06-01T04:26:10.854Z,2548
2018-06-01T04:27:20.600Z,2560
2018-06-01T04:28:30.614Z,2580
2018-06-01T04:29:40.362Z,2588
2018-06-01T04:30:50.375Z,2596
2018-06-01T04:32:00.404Z,2608
2018-06-01T04:33:10.147Z,2620
2018-06-01T04:34:20.170Z,2628
2018-06-01T04:35:29.922Z,2640
2018-06-01T04:36:39.720Z,2652
2018-06-01T04:37:49.733Z,2664
2018-06-01T04:38:58.944Z,2672
2018-06-01T04:40:08.693Z,2684
2018-06-01T04:41:18.448Z,2696
2018-06-01T04:42:28.497Z,2704
2018-06-01T04:43:38.250Z,2716
2018-06-01T04:44:48.268Z,2728
2018-06-01T04:45:58.031Z,2736
2018-06-01T04:47:07.778Z,2744
2018-06-01T04:48:17.527Z,2756
2018-06-01T04:49:27.655Z,2768
2018-06-01T04:50:37.683Z,2780
2018-06-01T04:51:47.706Z,2788
2018-06-01T04:52:57.732Z,2800
2018-06-01T04:54:06.952Z,2808
2018-06-01T04:55:16.706Z,2820
2018-06-01T04:56:26.720Z,2828
2018-06-01T04:57:36.471Z,2840
2018-06-01T04:58:46.218Z,2848
2018-06-01T04:59:55.968Z,2860
2018-06-01T05:01:05.716Z,2868
2018-06-01T05:02:15.466Z,2876
2018-06-01T05:03:25.500Z,2884
2018-06-01T05:04:35.531Z,2896
2018-06-01T05:05:45.547Z,2900
2018-06-01T05:06:55.568Z,2912
2018-06-01T05:08:05.588Z,2920
2018-06-01T05:09:15.343Z,2924
2018-06-01T05:10:25.361Z,2936
2018-06-01T05:11:35.384Z,2948
2018-06-01T05:12:45.403Z,2956
2018-06-01T05:13:54.888Z,2964
2018-06-01T05:15:04.648Z,2972
2018-06-01T05:16:14.128Z,2980
2018-06-01T05:17:24.290Z,2988
2018-06-01T05:18:34.045Z,2996
2018-06-01T05:19:44.067Z,3004
2018-06-01T05:20:54.086Z,3012
2018-06-01T05:22:03.569Z,3012
2018-06-01T05:23:13.051Z,3020
2018-06-01T05:24:23.066Z,3024
2018-06-01T05:25:33.085Z,3032
2018-06-01T05:26:42.574Z,3036
2018-06-01T05:27:52.589Z,3044
2018-06-01T05:29:02.603Z,3048
2018-06-01T05:30:12.630Z,3060
2018-06-01T05:31:22.112Z,3064
2018-06-01T05:32:31.864Z,3076
2018-06-01T05:33:41.615Z,3080
2018-06-01T05:34:51.633Z,3084
2018-06-01T05:36:01.396Z,3088
2018-06-01T05:37:10.880Z,3096
2018-06-01T05:38:20.631Z,3100
2018-06-01T05:39:30.386Z,3108
2018-06-01T05:40:40.142Z,3112
2018-06-01T05:41:50.157Z,3120
2018-06-01T05:43:00.175Z,3128
2018-06-01T05:44:09.923Z,3132
2018-06-01T05:45:19.678Z,3140
2018-06-01T05:46:29.640Z,3144
2018-06-01T05:47:39.383Z,3152
2018-06-01T05:48:49.411Z,3160
2018-06-01T05:49:59.424Z,3160
2018-06-01T05:51:09.172Z,3168
2018-06-01T05:52:18.918Z,3172
2018-06-01T05:53:28.406Z,3176
2018-06-01T05:54:37.922Z,3184
2018-06-01T05:55:47.951Z,3188
2018-06-01T05:56:57.697Z,3192
2018-06-01T05:58:07.447Z,3200
2018-06-01T05:59:17.206Z,3204
2018-06-01T06:00:27.227Z,3212
2018-06-01T06:01:36.985Z,3220
2018-06-01T06:02:46.999Z,3224
2018-06-01T06:03:56.803Z,3228
2018-06-01T06:05:06.558Z,3240
2018-06-01T06:06:16.577Z,3240
2018-06-01T06:07:26.618Z,3252
2018-06-01T06:08:36.378Z,3260
2018-06-01T06:09:45.878Z,3268
2018-06-01T06:10:55.894Z,3280
2018-06-01T06:12:05.647Z,3288
2018-06-01T06:13:15.488Z,3300
2018-06-01T06:14:25.585Z,3304
2018-06-01T06:15:35.070Z,3316
2018-06-01T06:16:45.089Z,3320
2018-06-01T06:17:55.197Z,3332
2018-06-01T06:19:04.952Z,3340
2018-06-01T06:20:14.701Z,3344
2018-06-01T06:21:24.798Z,3348
2018-06-01T06:22:34.824Z,3356
2018-06-01T06:23:44.843Z,3360
2018-06-01T06:24:54.863Z,3372
2018-06-01T06:26:04.888Z,3376
2018-06-01T06:27:14.702Z,3384
2018-06-01T06:28:24.742Z,3392
2018-06-01T06:29:34.490Z,3400
2018-06-01T06:30:43.974Z,3400
2018-06-01T06:31:54.046Z,3412
2018-06-01T06:33:04.080Z,3416
2018-06-01T06:34:14.108Z,3424
2018-06-01T06:35:23.865Z,3436
2018-06-01T06:36:33.899Z,3444
2018-06-01T06:37:44.034Z,3452
2018-06-01T06:38:53.621Z,3460
2018-06-01T06:40:03.377Z,3468
2018-06-01T06:41:13.159Z,3472
2018-06-01T06:42:22.644Z,3484
2018-06-01T06:43:32.683Z,3496
2018-06-01T06:44:42.700Z,3504
2018-06-01T06:45:52.452Z,3516
2018-06-01T06:47:02.209Z,3524
2018-06-01T06:48:12.229Z,3532
2018-06-01T06:49:21.985Z,3548
2018-06-01T06:50:31.740Z,3560
2018-06-01T06:51:41.500Z,3560
2018-06-01T06:52:51.252Z,3568
2018-06-01T06:54:01.314Z,3576
2018-06-01T06:55:11.440Z,3588
2018-06-01T06:56:21.597Z,3600
2018-06-01T06:57:31.620Z,3608
2018-06-01T06:58:41.644Z,3620
2018-06-01T06:59:51.403Z,3632
2018-06-01T07:01:01.159Z,3648
2018-06-01T07:02:10.911Z,3664
2018-06-01T07:03:20.672Z,3668
2018-06-01T07:04:30.688Z,3680
2018-06-01T07:05:40.715Z,3744
2018-06-01T07:06:50.738Z,3724
2018-06-01T07:08:00.508Z,3724
2018-06-01T07:09:09.738Z,3740
2018-06-01T07:10:19.758Z,3756
2018-06-01T07:11:29.774Z,3784
2018-06-01T07:12:39.541Z,3796
2018-06-01T07:13:49.291Z,3824
2018-06-01T07:14:58.772Z,3844
2018-06-01T07:16:08.521Z,3856
2018-06-01T07:17:18.006Z,3876
2018-06-01T07:18:27.776Z,3896
2018-06-01T07:19:37.532Z,3912
2018-06-01T07:20:47.597Z,3932
2018-06-01T07:21:57.428Z,3960
2018-06-01T07:23:07.457Z,3976
2018-06-01T07:24:17.220Z,4000
2018-06-01T07:25:27.298Z,4020
2018-06-01T07:26:37.055Z,4036
2018-06-01T07:27:47.460Z,4048
2018-06-01T07:28:56.685Z,4064
2018-06-01T07:30:06.172Z,4080
2018-06-01T07:31:16.197Z,4100
2018-06-01T07:32:26.227Z,4116
2018-06-01T07:33:35.978Z,4136
2018-06-01T07:34:46.003Z,4152
2018-06-01T07:35:56.047Z,4164
2018-06-01T07:37:05.814Z,4176
2018-06-01T07:38:15.843Z,4196
2018-06-01T07:39:25.597Z,4220
2018-06-01T07:40:35.349Z,4228
2018-06-01T07:41:45.370Z,4244
2018-06-01T07:42:55.391Z,4256
2018-06-01T07:44:05.146Z,4272
2018-06-01T07:45:14.643Z,4288
2018-06-01T07:46:24.667Z,4304
2018-06-01T07:47:34.713Z,4320
2018-06-01T07:48:44.244Z,4344
2018-06-01T07:49:54.271Z,4368
2018-06-01T07:51:04.082Z,4392
2018-06-01T07:52:13.564Z,4412
2018-06-01T07:53:23.593Z,4428
2018-06-01T07:54:33.436Z,4448
2018-06-01T07:55:43.235Z,4468
2018-06-01T07:56:53.259Z,4488
2018-06-01T07:58:03.282Z,4516
2018-06-01T07:59:13.297Z,4540
2018-06-01T08:00:23.047Z,4560
2018-06-01T08:01:33.073Z,4584
2018-06-01T08:02:43.134Z,4616
2018-06-01T08:03:52.883Z,4648
2018-06-01T08:05:02.632Z,4680
2018-06-01T08:06:12.691Z,4724
2018-06-01T08:07:22.447Z,4760
2018-06-01T08:08:32.219Z,4800
2018-06-01T08:09:41.979Z,4844
2018-06-01T08:10:51.728Z,4880
2018-06-01T08:12:01.629Z,4912
2018-06-01T08:13:11.109Z,4928
2018-06-01T08:14:20.867Z,4932
2018-06-01T08:15:30.898Z,4944
2018-06-01T08:16:40.652Z,4960
2018-06-01T08:17:50.404Z,4984
2018-06-01T08:19:00.424Z,5004
2018-06-01T08:20:10.221Z,5036
2018-06-01T08:21:19.977Z,5080
2018-06-01T08:22:30.005Z,5144
2018-06-01T08:23:40.092Z,5216
2018-06-01T08:24:50.118Z,5244
2018-06-01T08:25:59.865Z,5140
2018-06-01T08:27:09.841Z,5244
2018-06-01T08:28:19.878Z,5208
2018-06-01T08:29:29.930Z,5184
2018-06-01T08:30:39.958Z,5168
2018-06-01T08:31:49.980Z,5176
2018-06-01T08:32:59.730Z,5196
2018-06-01T08:34:08.952Z,5212
2018-06-01T08:35:18.974Z,5232
2018-06-01T08:36:28.734Z,5268
2018-06-01T08:37:38.488Z,5304
2018-06-01T08:38:48.245Z,5344
2018-06-01T08:39:58.272Z,5376
2018-06-01T08:41:07.803Z,5408
2018-06-01T08:42:17.294Z,5460
2018-06-01T08:43:27.333Z,5548
2018-06-01T08:44:37.365Z,5668
2018-06-01T08:45:47.381Z,5832
2018-06-01T08:46:57.398Z,6000
2018-06-01T08:48:06.880Z,6112
2018-06-01T08:49:16.641Z,6128
2018-06-01T08:50:26.403Z,6084
2018-06-01T08:51:36.423Z,6024
2018-06-01T08:52:46.442Z,5996
2018-06-01T08:53:56.461Z,5976
2018-06-01T08:55:06.486Z,5952
2018-06-01T08:56:16.512Z,5944
2018-06-01T08:57:26.539Z,5540
2018-06-01T08:58:36.577Z,6012
2018-06-01T08:59:46.600Z,6016
2018-06-01T09:00:56.632Z,6048
2018-06-01T09:02:06.387Z,6072
2018-06-01T09:03:16.136Z,6092
2018-06-01T09:04:25.888Z,6100
2018-06-01T09:05:35.644Z,6108
2018-06-01T09:06:45.399Z,6136
2018-06-01T09:07:55.157Z,6172
2018-06-01T09:09:04.640Z,6204
2018-06-01T09:10:14.279Z,6220
2018-06-01T09:11:24.609Z,6232
2018-06-01T09:12:34.363Z,6256
2018-06-01T09:13:44.112Z,6288
2018-06-01T09:14:53.600Z,6324
2018-06-01T09:16:03.360Z,6376
2018-06-01T09:17:13.122Z,6432
2018-06-01T09:18:23.149Z,6492
2018-06-01T09:19:32.905Z,6556
2018-06-01T09:20:42.933Z,6604
2018-06-01T09:21:52.956Z,6632
2018-06-01T09:23:02.708Z,6644
2018-06-01T09:24:12.193Z,6644
2018-06-01T09:25:21.948Z,6636
2018-06-01T09:26:31.710Z,6632
2018-06-01T09:27:41.081Z,6632
2018-06-01T09:28:51.111Z,6652
2018-06-01T09:30:00.865Z,6672
2018-06-01T09:31:10.367Z,6692
2018-06-01T09:32:20.389Z,6716
2018-06-01T09:33:30.165Z,6772
2018-06-01T09:34:39.920Z,6816
2018-06-01T09:35:49.672Z,6864
2018-06-01T09:36:59.690Z,6928
2018-06-01T09:38:09.752Z,7024
2018-06-01T09:39:19.821Z,7120
2018-06-01T09:40:29.840Z,7212
2018-06-01T09:41:39.861Z,7280
2018-06-01T09:42:49.356Z,7340
2018-06-01T09:43:59.108Z,7420
2018-06-01T09:45:08.867Z,7472
2018-06-01T09:46:18.647Z,7496
2018-06-01T09:47:28.400Z,7524
2018-06-01T09:48:38.532Z,7552
2018-06-01T09:49:48.296Z,7604
2018-06-01T09:50:58.060Z,7664
2018-06-01T09:52:07.817Z,7732
2018-06-01T09:53:17.630Z,7800
2018-06-01T09:54:27.375Z,7888
2018-06-01T09:55:37.580Z,7952
2018-06-01T09:56:47.619Z,8040
2018-06-01T09:57:57.637Z,8132
2018-06-01T09:59:07.139Z,8212
2018-06-01T10:00:16.895Z,8252
2018-06-01T10:01:26.118Z,8288
2018-06-01T10:02:36.199Z,8352
2018-06-01T10:03:45.955Z,8424
2018-06-01T10:04:55.441Z,8464
2018-06-01T10:06:04.936Z,8524
2018-06-01T10:07:14.961Z,8592
2018-06-01T10:08:24.981Z,8652
2018-06-01T10:09:35.011Z,8792
2018-06-01T10:10:44.764Z,8880
2018-06-01T10:11:54.789Z,8880
2018-06-01T10:13:04.814Z,8888
2018-06-01T10:14:14.836Z,8888
2018-06-01T10:15:24.591Z,8888
2018-06-01T10:16:34.346Z,8936
2018-06-01T10:17:44.101Z,9008
2018-06-01T10:18:53.865Z,9112
2018-06-01T10:20:03.888Z,9220
2018-06-01T10:21:13.915Z,9240
2018-06-01T10:22:23.672Z,9164
2018-06-01T10:23:33.693Z,9060
2018-06-01T10:24:43.450Z,9012
2018-06-01T10:25:53.204Z,8920
2018-06-01T10:27:03.224Z,8804
2018-06-01T10:28:12.980Z,8704
2018-06-01T10:29:23.004Z,8568
2018-06-01T10:30:32.519Z,8472
2018-06-01T10:31:42.280Z,8424
2018-06-01T10:32:52.403Z,8396
2018-06-01T10:34:02.121Z,8396
2018-06-01T10:35:11.612Z,8420
2018-06-01T10:36:21.371Z,8420
2018-06-01T10:37:31.440Z,8444
2018-06-01T10:38:41.471Z,8452
2018-06-01T10:39:51.225Z,8456
2018-06-01T10:41:00.980Z,8424
2018-06-01T10:42:10.735Z,8416
2018-06-01T10:43:20.221Z,8460
2018-06-01T10:44:30.027Z,8524
2018-06-01T10:45:40.052Z,8620
2018-06-01T10:46:50.069Z,8764
2018-06-01T10:48:00.094Z,8908
2018-06-01T10:49:09.854Z,8992
2018-06-01T10:50:19.620Z,9020
2018-06-01T10:51:29.371Z,8996
2018-06-01T10:52:39.400Z,8932
2018-06-01T10:53:49.155Z,8828
2018-06-01T10:54:58.912Z,8752
2018-06-01T10:56:08.402Z,8700
2018-06-01T10:57:18.436Z,8644
2018-06-01T10:58:28.462Z,8612
2018-06-01T10:59:38.227Z,8576
2018-06-01T11:00:48.395Z,8540
2018-06-01T11:01:58.414Z,8516
2018-06-01T11:03:08.169Z,8496
2018-06-01T11:04:17.926Z,8488
2018-06-01T11:05:27.418Z,8492
2018-06-01T11:06:37.014Z,8484
2018-06-01T11:07:46.787Z,8500
2018-06-01T11:08:56.813Z,8536
2018-06-01T11:10:06.851Z,8576
2018-06-01T11:11:16.092Z,8600
2018-06-01T11:12:26.121Z,8612
2018-06-01T11:13:36.161Z,8628
2018-06-01T11:14:45.971Z,8640
2018-06-01T11:15:55.200Z,8648
2018-06-01T11:17:05.243Z,8660
2018-06-01T11:18:15.272Z,8688
2018-06-01T11:19:25.306Z,8748
2018-06-01T11:20:34.802Z,8772
2018-06-01T11:21:44.366Z,8804
2018-06-01T11:22:53.862Z,8824
2018-06-01T11:24:03.884Z,8852
2018-06-01T11:25:13.117Z,8888
2018-06-01T11:26:22.896Z,8948
2018-06-01T11:27:32.658Z,9004
2018-06-01T11:28:42.700Z,9060
2018-06-01T11:29:52.454Z,9228
2018-06-01T11:31:02.217Z,9672
2018-06-01T11:32:11.981Z,10768
2018-06-01T11:33:21.748Z,15756
2018-06-01T11:34:31.537Z,59360
2018-06-01T11:35:41.567Z,86752
2018-06-01T11:36:50.794Z,85280
2018-06-01T11:38:00.814Z,82336
2018-06-01T11:39:10.570Z,79392
2018-06-01T11:40:20.069Z,82720
2018-06-01T11:41:29.826Z,82848
2018-06-01T11:42:39.851Z,82528
2018-06-01T11:43:49.615Z,87680
2018-06-01T11:44:59.376Z,87392
2018-06-01T11:46:08.371Z,86464
2018-06-01T11:47:18.139Z,88800
2018-06-01T11:48:27.628Z,88096
2018-06-01T11:49:37.406Z,87520
2018-06-01T11:50:47.439Z,89728
2018-06-01T11:51:57.200Z,85792
2018-06-01T11:53:06.978Z,84192
2018-06-01T11:54:17.014Z,83040
2018-06-01T11:55:27.060Z,78848
2018-06-01T11:56:36.567Z,83072
2018-06-01T11:57:46.063Z,84448
2018-06-01T11:58:55.836Z,75456
2018-06-01T12:00:05.875Z,70528
2018-06-01T12:01:15.644Z,74048
2018-06-01T12:02:25.677Z,86976
2018-06-01T12:03:35.487Z,89088
2018-06-01T12:04:45.307Z,85728
2018-06-01T12:05:55.342Z,89696
2018-06-01T12:07:05.377Z,91840
2018-06-01T12:08:14.879Z,91648
2018-06-01T12:09:24.911Z,87424
2018-06-01T12:10:34.683Z,79520
2018-06-01T12:11:44.191Z,75360
2018-06-01T12:12:54.230Z,80160
2018-06-01T12:14:04.272Z,84448
2018-06-01T12:15:14.315Z,79200
2018-06-01T12:16:24.201Z,73984
2018-06-01T12:17:34.420Z,72896
2018-06-01T12:18:44.261Z,76160
2018-06-01T12:19:54.308Z,79392
2018-06-01T12:21:04.410Z,83264
2018-06-01T12:22:14.448Z,88768
2018-06-01T12:23:24.660Z,83904
2018-06-01T12:24:34.707Z,72416
2018-06-01T12:25:44.749Z,62688
2018-06-01T12:26:54.782Z,45792
2018-06-01T12:28:04.281Z,30944
2018-06-01T12:29:14.613Z,23968
2018-06-01T12:30:24.840Z,23744
2018-06-01T12:31:34.344Z,19872
2018-06-01T12:32:44.371Z,18016
2018-06-01T12:33:54.570Z,17088
2018-06-01T12:35:04.343Z,16384
2018-06-01T12:36:14.114Z,16224
2018-06-01T12:37:23.883Z,14952
2018-06-01T12:38:33.703Z,14048
2018-06-01T12:39:43.205Z,13120
2018-06-01T12:40:53.241Z,12232
2018-06-01T12:42:03.250Z,11504
2018-06-01T12:43:12.764Z,10932
2018-06-01T12:44:22.992Z,10536
2018-06-01T12:45:32.763Z,10196
2018-06-01T12:46:42.272Z,9924
2018-06-01T12:47:52.040Z,9704
2018-06-01T12:49:02.068Z,9560
2018-06-01T12:50:11.031Z,9476
2018-06-01T12:51:20.799Z,9412
2018-06-01T12:52:30.301Z,9364
2018-06-01T12:53:40.329Z,9352
2018-06-01T12:54:50.355Z,9348
2018-06-01T12:56:00.383Z,9356
2018-06-01T12:57:10.422Z,9352
2018-06-01T12:58:20.186Z,9320
2018-06-01T12:59:30.223Z,9288
2018-06-01T13:00:39.716Z,9260
2018-06-01T13:01:48.943Z,9256
2018-06-01T13:02:58.704Z,9288
2018-06-01T13:04:08.472Z,9380
2018-06-01T13:05:18.242Z,9552
2018-06-01T13:06:28.271Z,9800
2018-06-01T13:07:38.299Z,10288
2018-06-01T13:08:48.123Z,10736
2018-06-01T13:09:58.312Z,11208
2018-06-01T13:11:07.803Z,12248
2018-06-01T13:12:17.828Z,12864
2018-06-01T13:13:27.863Z,13104
2018-06-01T13:14:37.633Z,13412
2018-06-01T13:15:47.130Z,13492
2018-06-01T13:16:57.214Z,14052
2018-06-01T13:18:07.254Z,15084
2018-06-01T13:19:17.016Z,14784
2018-06-01T13:20:26.806Z,13132
2018-06-01T13:21:36.578Z,11668
2018-06-01T13:22:46.603Z,10332
2018-06-01T13:23:56.367Z,9348
2018-06-01T13:25:05.866Z,8716
2018-06-01T13:26:15.417Z,8304
2018-06-01T13:27:25.183Z,7984
2018-06-01T13:28:34.950Z,7692
2018-06-01T13:29:44.720Z,7436
2018-06-01T13:30:54.517Z,7184
2018-06-01T13:32:03.738Z,6952
2018-06-01T13:33:13.235Z,6752
2018-06-01T13:34:22.993Z,6612
2018-06-01T13:35:32.523Z,6544
2018-06-01T13:36:42.275Z,6520
2018-06-01T13:37:51.807Z,6520
2018-06-01T13:39:01.836Z,6532
2018-06-01T13:40:11.861Z,6476
2018-06-01T13:41:21.882Z,6348
2018-06-01T13:42:31.113Z,6244
2018-06-01T13:43:40.868Z,6220
2018-06-01T13:44:50.892Z,6272
2018-06-01T13:46:00.916Z,6416
2018-06-01T13:47:10.945Z,6620
2018-06-01T13:48:20.704Z,6784
2018-06-01T13:49:30.728Z,6964
2018-06-01T13:50:40.574Z,7180
2018-06-01T13:51:50.732Z,7404
2018-06-01T13:53:00.761Z,7608
2018-06-01T13:54:10.522Z,7816
2018-06-01T13:55:20.292Z,8048
2018-06-01T13:56:30.047Z,8344
2018-06-01T13:57:40.085Z,8700
2018-06-01T13:58:49.846Z,9068
2018-06-01T13:59:59.872Z,9412
2018-06-01T14:01:09.104Z,9716
2018-06-01T14:02:18.864Z,10032
2018-06-01T14:03:28.352Z,10328
2018-06-01T14:04:38.373Z,10620
2018-06-01T14:05:48.409Z,10980
2018-06-01T14:06:58.283Z,11496
2018-06-01T14:08:08.044Z,12076
2018-06-01T14:09:18.074Z,12436
2018-06-01T14:10:28.218Z,12624
2018-06-01T14:11:37.970Z,12724
2018-06-01T14:12:47.728Z,12980
2018-06-01T14:13:57.767Z,13248
2018-06-01T14:15:07.527Z,13668
2018-06-01T14:16:17.283Z,14004
2018-06-01T14:17:27.036Z,14212
2018-06-01T14:18:37.065Z,14548
2018-06-01T14:19:46.827Z,14956
2018-06-01T14:20:56.848Z,15544
2018-06-01T14:22:06.606Z,16704
2018-06-01T14:23:16.361Z,17984
2018-06-01T14:24:26.483Z,19136
2018-06-01T14:25:36.234Z,19616
2018-06-01T14:26:46.477Z,19488
2018-06-01T14:27:56.503Z,19040
2018-06-01T14:29:05.724Z,18336
2018-06-01T14:30:15.489Z,17536
2018-06-01T14:31:25.241Z,16704
2018-06-01T14:32:34.737Z,16136
2018-06-01T14:33:44.224Z,16416
2018-06-01T14:34:54.265Z,17056
2018-06-01T14:36:04.123Z,17920
2018-06-01T14:37:13.620Z,18816
2018-06-01T14:38:23.378Z,20512
2018-06-01T14:39:33.420Z,36704
2018-06-01T14:40:43.608Z,25120
2018-06-01T14:41:53.772Z,21696
2018-06-01T14:43:03.535Z,20480
2018-06-01T14:44:13.026Z,19392
2018-06-01T14:45:22.516Z,17888
2018-06-01T14:46:32.538Z,16124
2018-06-01T14:47:42.563Z,16024
2018-06-01T14:48:52.314Z,19456
2018-06-01T14:50:02.079Z,22528
2018-06-01T14:51:11.583Z,26240
2018-06-01T14:52:21.384Z,63648
2018-06-01T14:53:31.417Z,34080
2018-06-01T14:54:41.306Z,24224
2018-06-01T14:55:51.344Z,26944
2018-06-01T14:57:01.392Z,21344
2018-06-01T14:58:11.156Z,19776
2018-06-01T14:59:21.544Z,18496
2018-06-01T15:00:31.309Z,16704
2018-06-01T15:01:41.130Z,15400
2018-06-01T15:02:50.938Z,14400
2018-06-01T15:04:00.699Z,13436
2018-06-01T15:05:10.455Z,12860
2018-06-01T15:06:19.951Z,13068
2018-06-01T15:07:29.447Z,14280
2018-06-01T15:08:39.307Z,15404
2018-06-01T15:09:49.072Z,16832
2018-06-01T15:10:58.833Z,18048
2018-06-01T15:12:08.603Z,18592
2018-06-01T15:13:18.365Z,18912
2018-06-01T15:14:28.388Z,19776
2018-06-01T15:15:38.150Z,21344
2018-06-01T15:16:47.912Z,23744
2018-06-01T15:17:57.417Z,23328
2018-06-01T15:19:07.453Z,23904
2018-06-01T15:20:17.298Z,20864
2018-06-01T15:21:27.159Z,17440
2018-06-01T15:22:36.978Z,17248
2018-06-01T15:23:46.736Z,19328
2018-06-01T15:24:56.220Z,50592
2018-06-01T15:26:05.704Z,42080
2018-06-01T15:27:15.203Z,21248
2018-06-01T15:28:25.281Z,17472
2018-06-01T15:29:35.308Z,16928
2018-06-01T15:30:45.365Z,17856
2018-06-01T15:31:55.395Z,17152
2018-06-01T15:33:05.151Z,15984
2018-06-01T15:34:14.952Z,15456
2018-06-01T15:35:24.729Z,16016
2018-06-01T15:36:34.767Z,17344
2018-06-01T15:37:44.523Z,19968